Time;durP1;ratioP1;P1;durP2;ratioP2;P2;SDS_P1;SDS_P2;PMS_P1;PMS_P2;Temp;Humidity;BMP_temperature;BMP_pressure;BME280_temperature;BME280_humidity;BME280_pressure;Samples;Min_cycle;Max_cycle;Signal;HPM_P1;HPM_P2
2022/09/02 00:01:31;;;;;;;2.00;1.80;;;23.60;37.70;;;;;;5048761;28;20449;-87
2022/09/02 00:04:02;;;;;;;2.30;2.10;;;23.60;37.80;;;;;;5088504;28;20526;-87
2022/09/02 00:06:31;;;;;;;2.80;2.17;;;23.60;38.00;;;;;;5062497;28;20518;-93
2022/09/02 00:08:59;;;;;;;2.97;1.80;;;23.60;38.30;;;;;;5082968;28;20447;-88
2022/09/02 00:11:28;;;;;;;2.90;2.20;;;23.50;38.40;;;;;;5083712;28;20577;-87
2022/09/02 00:13:56;;;;;;;3.63;2.20;;;23.60;38.40;;;;;;5052446;28;20448;-87
2022/09/02 00:16:24;;;;;;;2.57;2.13;;;23.50;38.30;;;;;;5085454;28;20486;-87
2022/09/02 00:18:52;;;;;;;2.10;2.00;;;23.50;38.20;;;;;;5054076;28;20432;-87
2022/09/02 00:21:21;;;;;;;4.00;2.23;;;23.40;37.90;;;;;;5052274;28;20447;-87
2022/09/02 00:23:49;;;;;;;2.00;1.90;;;23.30;37.80;;;;;;5046443;28;20493;-89
2022/09/02 00:26:16;;;;;;;3.03;2.83;;;23.20;38.20;;;;;;5080701;28;20503;-87
2022/09/02 00:28:45;;;;;;;2.40;2.20;;;23.20;38.40;;;;;;5066942;28;20817;-88
2022/09/02 00:31:12;;;;;;;2.43;2.10;;;23.20;38.40;;;;;;5065383;28;20468;-87
2022/09/02 00:33:40;;;;;;;4.50;1.90;;;23.20;38.50;;;;;;5063989;28;20448;-85
2022/09/02 00:36:07;;;;;;;2.00;1.90;;;23.20;38.50;;;;;;5089742;28;20566;-86
2022/09/02 00:38:38;;;;;;;3.70;2.10;;;23.20;38.60;;;;;;5085575;28;20454;-87
2022/09/02 00:41:08;;;;;;;3.67;2.20;;;23.20;38.60;;;;;;5050713;28;20535;-87
2022/09/02 00:43:42;;;;;;;2.47;2.00;;;23.10;38.40;;;;;;5059588;28;20439;-89
2022/09/02 00:46:10;;;;;;;4.30;1.90;;;23.00;38.40;;;;;;5069459;28;20468;-86
2022/09/02 00:48:41;;;;;;;2.30;2.10;;;23.00;38.50;;;;;;5061285;28;20479;-87
2022/09/02 00:51:09;;;;;;;4.50;2.10;;;22.90;38.30;;;;;;5072935;28;20524;-87
2022/09/02 00:53:41;;;;;;;2.17;1.70;;;22.90;38.50;;;;;;5056391;28;20834;-87
2022/09/02 00:56:14;;;;;;;2.20;2.10;;;22.90;38.60;;;;;;5039952;28;20478;-86
2022/09/02 00:58:42;;;;;;;2.70;2.10;;;22.80;38.60;;;;;;5073568;28;20487;-87
2022/09/02 01:01:10;;;;;;;2.70;2.07;;;22.80;38.80;;;;;;5075324;28;20818;-85
2022/09/02 01:03:39;;;;;;;3.53;2.10;;;22.70;38.40;;;;;;5092386;28;20440;-90
2022/09/02 01:06:06;;;;;;;4.20;1.97;;;22.60;38.60;;;;;;5073305;28;20601;-86
2022/09/02 01:08:38;;;;;;;3.67;2.80;;;22.60;38.70;;;;;;5088910;28;20447;-86
2022/09/02 01:11:06;;;;;;;4.00;2.47;;;22.60;38.70;;;;;;5074345;28;20494;-86
2022/09/02 01:13:38;;;;;;;2.50;2.30;;;22.50;38.90;;;;;;5089039;28;20509;-88
2022/09/02 01:16:11;;;;;;;3.73;2.53;;;22.50;38.90;;;;;;5057950;28;20470;-86
2022/09/02 01:18:39;;;;;;;2.20;2.00;;;22.40;39.00;;;;;;5070715;28;20505;-86
2022/09/02 01:21:06;;;;;;;2.30;2.10;;;22.40;38.90;;;;;;5035939;28;20450;-87
2022/09/02 01:23:36;;;;;;;2.97;2.77;;;22.30;38.80;;;;;;5042570;28;20576;-87
2022/09/02 01:26:06;;;;;;;3.37;2.53;;;22.30;39.00;;;;;;5035139;28;20463;-87
2022/09/02 01:28:34;;;;;;;2.57;2.00;;;22.20;39.20;;;;;;5038464;28;20451;-87
2022/09/02 01:31:01;;;;;;;2.53;2.17;;;22.20;39.20;;;;;;5091417;28;20463;-87
2022/09/02 01:33:30;;;;;;;2.90;2.40;;;22.10;39.50;;;;;;5075927;28;20448;-87
2022/09/02 01:35:57;;;;;;;3.93;2.10;;;22.00;39.10;;;;;;5086810;28;20463;-87
2022/09/02 01:38:25;;;;;;;3.10;2.50;;;22.00;39.00;;;;;;5065560;28;20456;-87
2022/09/02 01:40:54;;;;;;;2.53;2.30;;;21.90;38.80;;;;;;5052160;28;20824;-86
2022/09/02 01:43:23;;;;;;;3.00;2.50;;;21.80;39.50;;;;;;5048809;28;20540;-86
2022/09/02 01:45:52;;;;;;;2.90;2.10;;;21.80;39.80;;;;;;5063509;28;21063;-89
2022/09/02 01:48:22;;;;;;;2.70;2.00;;;21.80;39.70;;;;;;5044204;28;20449;-89
2022/09/02 01:50:53;;;;;;;2.57;2.20;;;21.70;39.50;;;;;;5046707;28;20506;-86
2022/09/02 01:53:21;;;;;;;4.60;2.20;;;21.70;39.90;;;;;;5069420;28;20435;-87
2022/09/02 01:55:48;;;;;;;2.20;2.00;;;21.70;39.80;;;;;;5067249;28;20845;-88
2022/09/02 01:58:18;;;;;;;2.57;2.37;;;21.60;39.80;;;;;;5075567;28;20452;-87
2022/09/02 02:00:45;;;;;;;2.33;2.23;;;21.60;40.00;;;;;;5052209;28;20471;-87
2022/09/02 02:03:12;;;;;;;2.50;2.30;;;21.60;39.90;;;;;;5068487;28;20472;-86
2022/09/02 02:05:40;;;;;;;2.50;2.30;;;21.50;40.20;;;;;;5068005;28;20459;-86
2022/09/02 02:08:07;;;;;;;2.70;2.50;;;21.50;40.20;;;;;;5049922;28;20459;-86
2022/09/02 02:10:35;;;;;;;3.33;2.60;;;21.40;39.60;;;;;;5069448;28;20463;-87
2022/09/02 02:13:02;;;;;;;3.50;2.13;;;21.20;40.00;;;;;;5052116;28;20760;-89
2022/09/02 02:15:36;;;;;;;3.40;2.63;;;21.10;40.20;;;;;;5070217;28;20468;-90
2022/09/02 02:18:03;;;;;;;2.90;2.70;;;21.10;40.00;;;;;;5054227;28;20448;-87
2022/09/02 02:20:32;;;;;;;5.30;2.10;;;21.00;40.20;;;;;;5053780;28;20440;-87
2022/09/02 02:22:59;;;;;;;2.20;2.00;;;20.90;40.30;;;;;;5072887;28;20447;-84
2022/09/02 02:25:26;;;;;;;6.23;2.60;;;20.90;40.60;;;;;;5046472;28;20500;-87
2022/09/02 02:27:54;;;;;;;2.57;2.37;;;20.90;40.10;;;;;;5051384;28;20453;-87
2022/09/02 02:30:22;;;;;;;2.67;2.47;;;20.80;41.20;;;;;;5080558;28;20498;-88
2022/09/02 02:32:51;;;;;;;2.53;2.30;;;20.80;40.40;;;;;;5055477;28;21006;-87
2022/09/02 02:35:21;;;;;;;3.27;2.20;;;20.80;40.80;;;;;;5037973;28;20502;-87
2022/09/02 02:37:49;;;;;;;2.73;1.90;;;20.90;41.40;;;;;;5070075;28;20452;-86
2022/09/02 02:40:19;;;;;;;2.13;2.03;;;20.90;41.30;;;;;;5070416;28;20975;-87
2022/09/02 02:42:47;;;;;;;2.50;2.30;;;21.00;41.60;;;;;;5063694;28;20502;-87
2022/09/02 02:45:15;;;;;;;2.77;2.57;;;21.00;41.20;;;;;;5070761;28;20454;-86
2022/09/02 02:47:44;;;;;;;6.00;2.40;;;21.10;41.40;;;;;;5035276;28;20440;-87
2022/09/02 02:50:17;;;;;;;2.70;2.50;;;21.10;41.30;;;;;;5054274;28;20595;-87
2022/09/02 02:52:45;;;;;;;2.30;2.10;;;21.10;40.80;;;;;;5054908;28;20788;-87
2022/09/02 02:55:14;;;;;;;2.70;2.50;;;21.10;40.90;;;;;;5037036;28;20503;-87
2022/09/02 02:57:43;;;;;;;2.73;2.23;;;21.00;40.60;;;;;;5069119;28;20535;-87
2022/09/02 03:00:13;;;;;;;2.73;2.40;;;20.90;40.30;;;;;;5050792;28;20534;-87
2022/09/02 03:02:41;;;;;;;2.70;2.50;;;20.90;41.20;;;;;;5054303;28;20440;-86
2022/09/02 03:05:10;;;;;;;2.30;2.10;;;20.90;40.60;;;;;;5036214;28;20523;-87
2022/09/02 03:07:39;;;;;;;2.77;2.00;;;20.80;40.90;;;;;;5089028;28;20454;-87
2022/09/02 03:10:08;;;;;;;3.03;2.60;;;20.80;40.60;;;;;;5072266;28;20533;-87
2022/09/02 03:12:38;;;;;;;3.80;2.67;;;20.70;41.40;;;;;;5054667;28;20795;-87
2022/09/02 03:15:08;;;;;;;3.53;2.40;;;20.60;41.20;;;;;;5049659;28;20530;-88
2022/09/02 03:17:35;;;;;;;2.13;2.03;;;20.60;41.50;;;;;;5064265;28;20444;-88
2022/09/02 03:20:04;;;;;;;2.67;2.47;;;20.40;42.10;;;;;;5061173;28;20472;-87
2022/09/02 03:22:37;;;;;;;3.13;2.77;;;20.40;42.20;;;;;;5082099;28;20447;-87
2022/09/02 03:25:09;;;;;;;2.73;2.53;;;20.40;42.40;;;;;;5042099;28;20668;-87
2022/09/02 03:27:37;;;;;;;3.63;2.50;;;20.40;42.30;;;;;;5045521;28;20455;-87
2022/09/02 03:30:06;;;;;;;3.00;2.60;;;20.40;42.50;;;;;;5060504;28;20448;-89
2022/09/02 03:32:33;;;;;;;2.43;2.23;;;20.40;42.50;;;;;;5060510;28;20479;-87
2022/09/02 03:35:01;;;;;;;2.63;2.43;;;20.50;42.40;;;;;;5077558;28;20444;-86
2022/09/02 03:37:29;;;;;;;4.80;2.67;;;20.20;42.40;;;;;;5042109;28;20516;-92
2022/09/02 03:39:56;;;;;;;3.10;2.80;;;20.20;42.90;;;;;;5081002;28;20443;-87
2022/09/02 03:42:25;;;;;;;3.07;2.80;;;19.80;43.30;;;;;;5031308;28;20502;-88
2022/09/02 03:44:52;;;;;;;3.27;2.60;;;19.00;44.90;;;;;;5052727;28;20444;-87
2022/09/02 03:47:20;;;;;;;2.50;2.30;;;18.40;46.00;;;;;;5063638;28;20521;-88
2022/09/02 03:49:47;;;;;;;3.33;2.70;;;18.60;45.30;;;;;;5086092;28;20448;-87
2022/09/02 03:52:14;;;;;;;5.43;2.43;;;18.90;44.50;;;;;;5049959;28;20563;-87
2022/09/02 03:54:42;;;;;;;3.90;2.77;;;19.10;43.40;;;;;;5045230;28;21024;-90
2022/09/02 03:57:09;;;;;;;8.33;2.47;;;19.30;43.80;;;;;;5052037;28;20471;-88
2022/09/02 03:59:38;;;;;;;3.60;2.40;;;19.60;44.00;;;;;;5054902;28;20476;-86
2022/09/02 04:02:06;;;;;;;3.10;2.67;;;19.70;43.80;;;;;;5067952;28;20436;-87
2022/09/02 04:04:33;;;;;;;2.83;2.40;;;19.70;43.40;;;;;;5061998;28;20470;-87
2022/09/02 04:07:01;;;;;;;2.47;2.27;;;19.70;43.40;;;;;;5044202;28;21277;-88
2022/09/02 04:09:28;;;;;;;3.17;2.63;;;18.90;44.90;;;;;;5047153;28;20452;-89
2022/09/02 04:11:55;;;;;;;2.97;2.67;;;18.60;45.90;;;;;;5062827;28;20480;-87
2022/09/02 04:14:22;;;;;;;3.63;2.47;;;18.70;45.00;;;;;;5050192;28;20563;-85
2022/09/02 04:16:51;;;;;;;2.73;2.50;;;18.90;45.00;;;;;;5044786;28;20479;-88
2022/09/02 04:19:18;;;;;;;4.40;4.00;;;19.20;44.90;;;;;;5049465;28;21186;-89
2022/09/02 04:21:45;;;;;;;4.37;3.10;;;19.00;44.80;;;;;;5044850;28;20432;-87
2022/09/02 04:24:13;;;;;;;4.30;2.70;;;18.30;46.20;;;;;;5028412;28;20983;-89
2022/09/02 04:26:44;;;;;;;4.07;2.87;;;18.30;46.60;;;;;;5042901;28;20460;-87
2022/09/02 04:29:11;;;;;;;3.03;2.47;;;17.90;47.60;;;;;;5069413;28;20459;-88
2022/09/02 04:31:40;;;;;;;3.23;2.23;;;17.90;47.50;;;;;;5067193;28;20851;-87
2022/09/02 04:34:09;;;;;;;2.57;2.37;;;18.20;46.90;;;;;;5063915;28;20454;-89
2022/09/02 04:36:37;;;;;;;3.37;3.00;;;18.30;46.80;;;;;;5052116;28;20475;-87
2022/09/02 04:39:08;;;;;;;5.03;3.07;;;18.40;46.50;;;;;;5042721;28;20436;-89
2022/09/02 04:41:36;;;;;;;3.90;3.10;;;18.60;46.10;;;;;;5062731;28;20471;-91
2022/09/02 04:44:07;;;;;;;2.87;2.60;;;18.60;45.90;;;;;;5029736;28;20456;-87
2022/09/02 04:46:38;;;;;;;2.90;2.67;;;18.50;46.10;;;;;;5050423;28;20472;-87
2022/09/02 04:49:10;;;;;;;7.67;2.77;;;18.70;45.50;;;;;;5051686;28;20471;-87
2022/09/02 04:51:39;;;;;;;3.63;3.33;;;18.80;45.60;;;;;;5035987;28;20463;-87
2022/09/02 04:54:09;;;;;;;2.90;2.70;;;19.10;45.50;;;;;;5060678;28;21015;-87
2022/09/02 04:56:38;;;;;;;4.00;2.60;;;19.10;45.00;;;;;;5050368;28;20459;-86
2022/09/02 04:59:06;;;;;;;2.57;2.37;;;19.20;44.90;;;;;;5043486;28;20457;-88
2022/09/02 05:01:35;;;;;;;3.00;2.80;;;19.20;45.10;;;;;;5050289;28;20554;-88
2022/09/02 05:04:08;;;;;;;5.03;2.63;;;19.30;44.90;;;;;;5053277;28;20457;-88
2022/09/02 05:06:41;;;;;;;3.23;2.93;;;19.40;44.80;;;;;;5045349;28;21234;-88
2022/09/02 05:09:08;;;;;;;3.10;2.40;;;19.40;44.20;;;;;;5046610;28;20481;-87
2022/09/02 05:11:37;;;;;;;2.57;2.37;;;19.50;44.30;;;;;;5034536;28;20471;-87
2022/09/02 05:14:06;;;;;;;2.93;2.73;;;19.50;44.30;;;;;;5048680;28;20456;-90
2022/09/02 05:16:38;;;;;;;9.00;3.00;;;19.60;44.30;;;;;;5039925;28;20478;-89
2022/09/02 05:19:11;;;;;;;2.87;2.67;;;19.60;44.40;;;;;;5031055;28;21307;-92
2022/09/02 05:21:45;;;;;;;3.30;2.47;;;19.60;44.40;;;;;;5045447;28;20451;-86
2022/09/02 05:24:17;;;;;;;3.13;2.83;;;19.60;44.50;;;;;;5047598;28;21006;-89
2022/09/02 05:26:45;;;;;;;2.73;2.43;;;19.60;44.50;;;;;;5046066;28;20518;-90
2022/09/02 05:29:14;;;;;;;2.70;2.50;;;19.60;44.50;;;;;;5063705;28;20535;-87
2022/09/02 05:31:43;;;;;;;3.50;2.63;;;19.60;44.40;;;;;;5036406;28;20562;-88
2022/09/02 05:34:14;;;;;;;3.33;3.00;;;19.60;44.90;;;;;;5034821;28;20987;-89
2022/09/02 05:36:42;;;;;;;4.60;2.80;;;19.60;45.00;;;;;;5063192;28;20471;-90
2022/09/02 05:39:09;;;;;;;2.80;2.60;;;19.60;45.10;;;;;;5067809;28;20447;-88
2022/09/02 05:41:38;;;;;;;3.20;2.63;;;19.60;45.20;;;;;;5062388;28;20449;-88
2022/09/02 05:44:07;;;;;;;2.93;2.70;;;19.60;45.30;;;;;;5048948;28;20526;-91
2022/09/02 05:46:36;;;;;;;3.70;2.47;;;19.60;45.40;;;;;;5034846;28;20567;-88
2022/09/02 05:49:08;;;;;;;6.63;3.40;;;19.60;45.70;;;;;;5035682;28;20881;-88
2022/09/02 05:51:46;;;;;;;3.83;3.17;;;19.60;45.90;;;;;;5050646;28;21128;-87
2022/09/02 05:54:18;;;;;;;3.50;3.20;;;19.60;46.00;;;;;;5051484;28;20444;-90
2022/09/02 05:56:47;;;;;;;5.60;3.17;;;19.70;46.20;;;;;;5053807;28;20477;-92
2022/09/02 05:59:15;;;;;;;4.60;2.97;;;19.70;46.30;;;;;;5064095;28;20519;-88
2022/09/02 06:01:44;;;;;;;3.43;3.00;;;19.70;46.30;;;;;;5032602;28;20470;-88
2022/09/02 06:04:11;;;;;;;3.13;2.83;;;19.80;46.50;;;;;;5043997;28;20448;-89
2022/09/02 06:06:39;;;;;;;3.70;2.90;;;19.70;46.40;;;;;;5064254;28;20472;-90
2022/09/02 06:09:12;;;;;;;3.40;2.90;;;19.80;46.40;;;;;;5057487;28;20465;-93
2022/09/02 06:11:43;;;;;;;7.97;3.50;;;19.80;46.60;;;;;;5073591;28;20479;-89
2022/09/02 06:14:12;;;;;;;3.30;2.90;;;19.80;46.70;;;;;;5050153;28;20706;-90
2022/09/02 06:16:41;;;;;;;3.30;3.07;;;19.80;46.60;;;;;;5066617;28;20566;-91
2022/09/02 06:19:16;;;;;;;2.90;2.70;;;19.80;46.40;;;;;;5027489;28;20459;-88
2022/09/02 06:21:45;;;;;;;10.50;3.67;;;19.90;46.50;;;;;;5049690;28;21027;-88
2022/09/02 06:24:13;;;;;;;5.03;3.13;;;19.90;46.90;;;;;;5075867;28;20885;-88
2022/09/02 06:26:42;;;;;;;3.13;2.63;;;19.90;46.60;;;;;;5039879;28;20496;-89
2022/09/02 06:29:10;;;;;;;16.37;3.80;;;19.90;46.20;;;;;;5057842;28;20451;-89
2022/09/02 06:31:40;;;;;;;7.90;3.20;;;19.90;46.00;;;;;;5034060;28;20506;-90
2022/09/02 06:34:09;;;;;;;4.10;2.90;;;19.90;46.50;;;;;;5044787;28;20444;-88
2022/09/02 06:36:36;;;;;;;3.90;2.77;;;19.90;46.60;;;;;;5076101;28;20475;-89
2022/09/02 06:39:03;;;;;;;6.47;3.60;;;20.00;46.50;;;;;;5063473;28;20828;-88
2022/09/02 06:41:34;;;;;;;3.47;3.10;;;20.00;46.70;;;;;;5042401;28;20473;-89
2022/09/02 06:44:06;;;;;;;10.70;3.20;;;20.10;46.60;;;;;;5048682;28;20448;-88
2022/09/02 06:46:37;;;;;;;8.07;2.93;;;20.10;46.30;;;;;;5061187;28;20466;-89
2022/09/02 06:49:07;;;;;;;12.70;3.20;;;20.10;45.90;;;;;;5076991;28;20487;-89
2022/09/02 06:51:37;;;;;;;5.53;2.80;;;20.10;46.20;;;;;;5061637;28;20471;-88
2022/09/02 06:54:06;;;;;;;7.60;3.47;;;20.20;45.80;;;;;;5059402;28;20546;-90
2022/09/02 06:56:37;;;;;;;12.80;3.67;;;20.20;46.00;;;;;;5055824;28;20571;-88
2022/09/02 06:59:05;;;;;;;6.90;2.90;;;20.20;45.70;;;;;;5026767;28;20497;-88
2022/09/02 07:01:42;;;;;;;3.30;2.80;;;20.10;45.30;;;;;;5058907;28;20505;-91
2022/09/02 07:06:54;;;;;;;7.70;3.27;;;20.10;46.00;;;;;;5024636;28;21064;-88
2022/09/02 07:09:29;;;;;;;8.57;3.00;;;20.10;45.00;;;;;;5038780;28;20535;-87
2022/09/02 07:12:00;;;;;;;3.27;2.83;;;20.10;44.70;;;;;;5048470;28;20545;-93
2022/09/02 07:14:28;;;;;;;5.53;2.70;;;20.20;45.40;;;;;;5042442;28;20568;-88
2022/09/02 07:16:58;;;;;;;4.07;2.63;;;20.30;45.80;;;;;;5045708;28;20574;-89
2022/09/02 07:19:29;;;;;;;3.73;2.90;;;20.40;45.70;;;;;;5058653;28;20514;-91
2022/09/02 07:21:57;;;;;;;8.27;3.07;;;20.50;45.60;;;;;;5059034;28;20456;-90
2022/09/02 07:24:24;;;;;;;4.50;3.00;;;20.60;45.00;;;;;;5027482;28;20452;-89
2022/09/02 07:26:51;;;;;;;5.10;2.70;;;20.70;44.80;;;;;;5055896;28;20478;-89
2022/09/02 07:29:20;;;;;;;2.83;2.40;;;20.80;45.20;;;;;;5048232;28;20450;-89
2022/09/02 07:31:48;;;;;;;5.90;2.80;;;20.90;45.00;;;;;;5067421;28;20448;-88
2022/09/02 07:34:19;;;;;;;2.57;2.37;;;20.80;44.50;;;;;;5046913;28;20452;-93
2022/09/02 07:36:48;;;;;;;2.90;2.23;;;20.80;44.70;;;;;;5032395;28;20530;-90
2022/09/02 07:39:19;;;;;;;3.83;2.40;;;20.90;44.30;;;;;;5030824;28;20444;-90
2022/09/02 07:41:51;;;;;;;3.13;1.90;;;20.90;43.70;;;;;;5031186;28;20449;-88
2022/09/02 07:44:23;;;;;;;3.93;1.90;;;21.00;43.00;;;;;;5058229;28;20955;-87
2022/09/02 07:46:52;;;;;;;2.73;2.10;;;21.10;43.00;;;;;;5033888;28;20468;-88
2022/09/02 07:49:21;;;;;;;2.50;1.90;;;21.30;42.30;;;;;;5035455;28;20491;-91
2022/09/02 07:51:53;;;;;;;3.63;1.83;;;21.30;42.70;;;;;;5039906;28;20563;-91
2022/09/02 07:54:30;;;;;;;6.60;2.20;;;21.50;42.20;;;;;;5046839;28;20535;-88
2022/09/02 07:57:01;;;;;;;2.03;1.83;;;21.50;41.60;;;;;;5031646;28;20557;-88
2022/09/02 07:59:30;;;;;;;5.10;1.97;;;21.50;42.20;;;;;;5028757;28;20452;-89
2022/09/02 08:02:03;;;;;;;2.97;2.10;;;21.60;41.30;;;;;;5043894;28;20473;-92
2022/09/02 08:04:30;;;;;;;7.17;1.70;;;21.80;41.50;;;;;;5057478;28;20483;-87
2022/09/02 08:06:57;;;;;;;4.13;2.07;;;21.60;41.50;;;;;;5034859;28;20524;-90
2022/09/02 08:09:24;;;;;;;2.90;1.70;;;21.70;41.30;;;;;;5048924;28;20450;-88
2022/09/02 08:11:52;;;;;;;2.07;1.70;;;21.90;41.40;;;;;;5082493;28;20446;-87
2022/09/02 08:14:23;;;;;;;2.47;1.70;;;22.10;41.30;;;;;;5067835;28;20472;-88
2022/09/02 08:16:52;;;;;;;2.13;1.93;;;22.30;40.90;;;;;;5051238;28;20506;-88
2022/09/02 08:19:19;;;;;;;9.40;1.97;;;22.30;40.40;;;;;;5060066;28;20946;-91
2022/09/02 08:21:46;;;;;;;1.97;1.77;;;22.10;40.50;;;;;;5046231;28;20452;-88
2022/09/02 08:24:14;;;;;;;2.63;1.77;;;22.20;40.90;;;;;;5065723;28;20498;-89
2022/09/02 08:26:41;;;;;;;7.30;2.17;;;22.40;40.50;;;;;;5057843;28;20517;-88
2022/09/02 08:29:09;;;;;;;4.20;1.73;;;22.60;40.80;;;;;;5059256;28;20547;-87
2022/09/02 08:31:37;;;;;;;2.33;1.90;;;22.80;40.20;;;;;;5083923;28;20467;-87
2022/09/02 08:34:05;;;;;;;4.50;2.03;;;22.90;39.70;;;;;;5064040;28;20530;-87
2022/09/02 08:36:33;;;;;;;2.17;1.70;;;22.80;39.80;;;;;;5072176;28;20471;-87
2022/09/02 08:39:02;;;;;;;3.43;2.13;;;22.90;39.80;;;;;;5053125;28;20448;-87
2022/09/02 08:41:34;;;;;;;2.30;1.90;;;22.90;39.40;;;;;;5051438;28;20868;-88
2022/09/02 08:44:03;;;;;;;1.90;1.80;;;22.80;39.40;;;;;;5061169;28;20443;-88
2022/09/02 08:46:34;;;;;;;1.77;1.67;;;22.70;39.40;;;;;;5049511;28;20563;-89
2022/09/02 08:49:08;;;;;;;2.67;1.90;;;22.90;39.60;;;;;;5036165;28;20443;-88
2022/09/02 08:51:41;;;;;;;2.33;1.50;;;23.10;39.00;;;;;;5044369;28;20471;-88
2022/09/02 08:54:21;;;;;;;2.27;1.80;;;23.20;38.70;;;;;;5048606;28;20859;-88
2022/09/02 08:56:50;;;;;;;2.47;1.90;;;23.00;38.80;;;;;;5065105;28;20472;-88
2022/09/02 08:59:21;;;;;;;2.40;2.20;;;23.20;38.50;;;;;;5058932;28;20494;-87
2022/09/02 09:01:54;;;;;;;1.73;1.63;;;23.40;38.00;;;;;;5050394;28;20844;-89
2022/09/02 09:04:37;;;;;;;2.70;1.70;;;23.50;37.80;;;;;;5056070;28;20447;-86
2022/09/02 09:07:19;;;;;;;1.90;1.73;;;23.70;37.50;;;;;;5051290;28;20903;-88
2022/09/02 09:10:00;;;;;;;3.37;1.90;;;23.90;37.70;;;;;;5061342;28;20935;-89
2022/09/02 09:12:37;;;;;;;1.60;1.50;;;23.80;37.00;;;;;;5046832;28;21021;-90
2022/09/02 09:15:11;;;;;;;2.93;2.13;;;23.90;36.80;;;;;;5061072;28;20452;-87
2022/09/02 09:17:44;;;;;;;1.97;1.47;;;24.00;36.30;;;;;;5038919;28;20448;-89
2022/09/02 09:20:18;;;;;;;8.60;1.90;;;24.30;36.80;;;;;;5067069;28;20444;-88
2022/09/02 09:22:48;;;;;;;2.07;1.97;;;24.50;35.60;;;;;;5080581;28;20453;-88
2022/09/02 09:25:17;;;;;;;2.73;1.60;;;24.40;35.50;;;;;;5065790;28;20447;-88
2022/09/02 09:27:45;;;;;;;2.80;1.80;;;24.60;34.50;;;;;;5083074;28;20496;-90
2022/09/02 09:30:13;;;;;;;1.97;1.80;;;24.70;35.00;;;;;;5043502;28;20464;-90
2022/09/02 09:32:45;;;;;;;1.70;1.60;;;24.80;34.90;;;;;;5034533;28;20529;-90
2022/09/02 09:35:15;;;;;;;2.13;1.90;;;25.00;34.70;;;;;;5081197;28;20484;-88
2022/09/02 09:37:44;;;;;;;1.80;1.70;;;25.30;33.90;;;;;;5028858;28;20814;-90
2022/09/02 09:40:24;;;;;;;2.30;1.73;;;25.70;34.00;;;;;;5060731;28;20444;-90
2022/09/02 09:42:55;;;;;;;2.83;1.80;;;25.90;32.90;;;;;;5068340;28;20444;-89
2022/09/02 09:45:31;;;;;;;1.90;1.80;;;25.90;33.30;;;;;;5078197;28;20823;-91
2022/09/02 09:48:26;;;;;;;3.10;1.87;;;26.10;33.10;;;;;;5062773;28;20454;-89
2022/09/02 09:51:16;;;;;;;2.30;1.77;;;26.10;32.40;;;;;;5051931;28;20470;-91
2022/09/02 09:53:44;;;;;;;1.60;1.50;;;26.40;32.00;;;;;;5067612;28;20453;-90
2022/09/02 09:56:26;;;;;;;3.57;1.63;;;26.50;31.20;;;;;;5078675;28;20483;-92
2022/09/02 09:58:53;;;;;;;2.00;1.80;;;26.30;30.80;;;;;;5042089;28;20459;-89
2022/09/02 10:01:23;;;;;;;3.40;1.87;;;26.20;31.70;;;;;;5059428;28;20452;-89
2022/09/02 10:03:52;;;;;;;1.90;1.70;;;26.50;31.10;;;;;;5050966;28;20456;-89
2022/09/02 10:06:22;;;;;;;7.90;1.80;;;26.70;30.80;;;;;;5075703;28;20491;-89
2022/09/02 10:08:55;;;;;;;2.47;1.87;;;26.80;30.60;;;;;;5049584;28;20876;-88
2022/09/02 10:11:25;;;;;;;3.27;1.70;;;26.60;30.00;;;;;;5037370;28;20490;-90
2022/09/02 10:13:59;;;;;;;2.70;1.40;;;26.70;29.40;;;;;;5070787;28;20468;-93
2022/09/02 10:16:41;;;;;;;4.60;1.40;;;26.70;29.30;;;;;;5053951;28;20534;-89
2022/09/02 10:19:17;;;;;;;5.30;1.70;;;26.90;29.60;;;;;;5061995;28;20476;-89
2022/09/02 10:22:30;;;;;;;1.50;1.40;;;27.20;28.20;;;;;;5057901;28;20439;-90
2022/09/02 10:25:09;;;;;;;1.60;1.50;;;27.50;27.80;;;;;;5038114;28;20480;-86
2022/09/02 10:27:46;;;;;;;1.77;1.30;;;27.20;27.10;;;;;;5056264;28;20444;-89
2022/09/02 10:30:19;;;;;;;1.73;1.37;;;27.10;28.00;;;;;;5039718;28;20447;-92
2022/09/02 10:33:09;;;;;;;1.83;1.30;;;27.40;27.80;;;;;;5040291;28;20433;-91
2022/09/02 10:35:42;;;;;;;1.50;1.30;;;27.20;27.90;;;;;;5047995;28;20463;-90
2022/09/02 10:38:28;;;;;;;4.37;1.40;;;27.20;27.50;;;;;;5040782;28;20445;-90
2022/09/02 10:41:00;;;;;;;4.17;2.03;;;27.40;26.30;;;;;;5047392;28;20431;-89
2022/09/02 10:43:42;;;;;;;2.13;1.53;;;27.50;26.50;;;;;;5063835;28;20439;-89
2022/09/02 10:46:10;;;;;;;1.60;1.50;;;27.30;26.20;;;;;;5060211;28;20906;-90
2022/09/02 10:48:49;;;;;;;1.83;1.50;;;27.40;26.30;;;;;;5074522;28;20509;-90
2022/09/02 10:51:24;;;;;;;1.93;1.30;;;27.50;26.30;;;;;;5056502;28;21112;-90
2022/09/02 10:54:08;;;;;;;1.60;1.20;;;27.60;26.90;;;;;;5058910;28;20459;-92
2022/09/02 10:56:43;;;;;;;2.20;1.50;;;27.60;26.50;;;;;;5072658;28;20471;-90
2022/09/02 10:59:14;;;;;;;1.60;1.50;;;27.60;26.60;;;;;;5057127;28;20793;-91
2022/09/02 11:01:46;;;;;;;6.13;1.60;;;27.70;26.10;;;;;;5022627;28;20448;-91
2022/09/02 11:04:19;;;;;;;1.50;1.40;;;27.80;25.40;;;;;;5071148;28;20468;-91
2022/09/02 11:06:49;;;;;;;2.10;1.90;;;28.10;25.60;;;;;;5056000;28;20473;-88
2022/09/02 11:09:29;;;;;;;1.30;1.20;;;28.30;24.50;;;;;;5056907;28;20459;-90
2022/09/02 11:12:02;;;;;;;2.27;1.20;;;28.20;25.10;;;;;;5057924;28;20448;-90
2022/09/02 11:14:35;;;;;;;3.93;1.40;;;28.30;24.70;;;;;;5069955;28;20835;-89
2022/09/02 11:17:07;;;;;;;3.07;1.30;;;28.50;24.40;;;;;;5036744;28;20551;-92
2022/09/02 11:19:40;;;;;;;3.13;1.27;;;28.70;24.40;;;;;;5045333;28;20463;-90
2022/09/02 11:22:19;;;;;;;1.80;1.30;;;28.40;24.40;;;;;;5040468;28;20460;-89
2022/09/02 11:24:55;;;;;;;2.27;1.27;;;28.70;24.60;;;;;;5071245;28;21092;-89
2022/09/02 11:27:32;;;;;;;5.03;1.60;;;28.90;24.70;;;;;;5053583;28;20490;-90
2022/09/02 11:30:04;;;;;;;2.13;1.53;;;29.00;23.20;;;;;;5073468;28;20502;-90
2022/09/02 11:32:39;;;;;;;2.70;1.50;;;29.00;23.20;;;;;;5037982;28;20463;-89
2022/09/02 11:35:10;;;;;;;4.00;1.30;;;29.20;23.20;;;;;;5053160;28;20466;-89
2022/09/02 11:37:43;;;;;;;1.47;1.37;;;29.40;23.10;;;;;;5070498;28;20444;-90
2022/09/02 11:40:17;;;;;;;1.90;1.30;;;29.40;23.60;;;;;;5036779;28;20668;-90
2022/09/02 11:43:03;;;;;;;2.70;1.50;;;29.40;23.80;;;;;;5029333;28;20534;-90
2022/09/02 11:45:47;;;;;;;1.40;1.20;;;29.30;23.50;;;;;;5043965;28;20466;-90
2022/09/02 11:48:56;;;;;;;1.23;1.13;;;29.10;23.70;;;;;;5043831;28;20448;-90
2022/09/02 11:51:54;;;;;;;5.40;1.30;;;29.20;24.10;;;;;;5069224;28;20811;-90
2022/09/02 11:54:23;;;;;;;1.30;1.20;;;29.50;23.40;;;;;;5032343;28;20468;-91
2022/09/02 11:56:59;;;;;;;1.67;1.20;;;29.50;23.10;;;;;;5070624;28;20475;-88
2022/09/02 11:59:59;;;;;;;1.30;1.20;;;29.70;23.50;;;;;;5053397;28;20448;-90
2022/09/02 12:02:35;;;;;;;1.50;1.40;;;30.00;23.00;;;;;;5044416;28;20458;-90
2022/09/02 12:05:40;;;;;;;4.20;1.30;;;30.10;22.60;;;;;;5030333;28;21030;-89
2022/09/02 12:08:11;;;;;;;1.10;1.00;;;30.00;22.40;;;;;;5065405;28;20443;-90
2022/09/02 12:11:00;;;;;;;1.70;1.60;;;30.10;22.90;;;;;;5050077;28;20445;-90
2022/09/02 12:13:40;;;;;;;3.40;1.50;;;30.00;22.30;;;;;;5052717;28;20472;-89
2022/09/02 12:16:36;;;;;;;1.40;1.30;;;30.10;22.50;;;;;;5036551;28;20468;-89
2022/09/02 12:19:27;;;;;;;1.97;1.53;;;30.10;22.90;;;;;;5053637;28;20862;-89
2022/09/02 12:22:27;;;;;;;1.13;1.00;;;29.90;22.40;;;;;;5051481;28;20458;-89
2022/09/02 12:24:55;;;;;;;1.33;1.23;;;29.90;23.30;;;;;;5070053;28;20487;-89
2022/09/02 12:27:25;;;;;;;2.50;1.30;;;30.10;22.80;;;;;;5048858;28;20495;-89
2022/09/02 12:29:55;;;;;;;2.13;1.53;;;30.20;22.70;;;;;;5051183;28;21352;-89
2022/09/02 12:33:03;;;;;;;1.40;1.30;;;30.50;22.00;;;;;;5068346;28;20448;-89
2022/09/02 12:35:51;;;;;;;1.40;1.20;;;30.40;22.30;;;;;;5044804;28;20854;-89
2022/09/02 12:38:40;;;;;;;2.07;1.13;;;29.90;22.10;;;;;;5073905;28;20450;-89
2022/09/02 12:41:25;;;;;;;2.17;1.40;;;30.10;22.50;;;;;;5071614;28;20529;-89
2022/09/02 12:44:03;;;;;;;1.63;1.30;;;30.20;22.10;;;;;;5046391;28;20444;-89
2022/09/02 12:46:48;;;;;;;1.30;1.20;;;29.90;21.90;;;;;;5055147;28;20847;-89
2022/09/02 12:49:36;;;;;;;2.83;1.40;;;30.20;22.50;;;;;;5056214;28;20452;-90
2022/09/02 12:52:05;;;;;;;4.93;1.87;;;30.30;22.70;;;;;;5046715;28;21183;-88
2022/09/02 12:54:41;;;;;;;1.70;1.40;;;30.80;22.30;;;;;;5056842;28;20974;-90
2022/09/02 12:57:10;;;;;;;4.23;1.40;;;30.80;21.30;;;;;;5063148;28;21402;-90
2022/09/02 12:59:39;;;;;;;1.30;1.20;;;30.50;21.70;;;;;;5053979;28;20452;-89
2022/09/02 13:02:25;;;;;;;1.30;1.20;;;30.30;21.40;;;;;;5064346;28;20455;-89
2022/09/02 13:05:05;;;;;;;1.30;1.20;;;30.20;21.30;;;;;;5044012;28;20967;-89
2022/09/02 13:08:09;;;;;;;2.40;1.30;;;30.30;21.80;;;;;;5036563;28;20499;-89
2022/09/02 13:11:16;;;;;;;1.40;1.30;;;30.40;22.10;;;;;;5052156;28;20923;-89
2022/09/02 13:14:06;;;;;;;1.87;1.50;;;30.60;22.30;;;;;;5038176;28;20448;-89